CheckWX is a tool to help pilots better visualize weather data.  It is not intended as a substitute for an official pre-flight weather briefing.

08:16:05 UTC

KSUE METAR
Door County Cherryland Airport
Sturgeon Bay, Wisconsin, USA
Current

20 mins ago

KSUE 230756Z AUTO 34016KT 10SM -RA OVC003 03/03 A2987 RMK AO2 SLP140 P0001 T00330028
Observed
Apr-23 @ 07:56 UTC
Wind
  • 340° at 16 KTS
Visibility
10 SM
Flight Rules
LIFR
Conditions
Light Rain
Cloud Levels
  • Overcast at 300' AGL
Temperature
C / 37°F
Dewpoint
C / 37°F
Humidity
100%
Altimeter
29.87" Hg
Pressure
1011.52 hPa
Current Rain
0.01"
Previous

1 hour ago

KSUE 230656Z AUTO 35014G22KT 10SM -RA OVC003 03/03 A2988 RMK AO2 SLP145 P0004 T00330028
Observed
Apr-23 @ 06:56 UTC
Wind
  • 350° at 14 KTS
  • Gusting to 22 KTS
Visibility
10 SM
Flight Rules
LIFR
Conditions
Light Rain
Cloud Levels
  • Overcast at 300' AGL
Temperature
C / 37°F
Dewpoint
C / 37°F
Humidity
100%
Altimeter
29.88" Hg
Pressure
1011.82 hPa
Current Rain
0.04"
Previous

2 hours ago

KSUE 230556Z AUTO 36015G23KT 10SM -RA OVC003 03/03 A2989 RMK AO2 PK WND 35027/0531 SLP145 P0008 60061 T00330033 10083 20033 401280033 55012
Observed
Apr-23 @ 05:56 UTC
Wind
  • 360° at 15 KTS
  • Gusting to 23 KTS
Visibility
10 SM
Flight Rules
LIFR
Conditions
Light Rain
Cloud Levels
  • Overcast at 300' AGL
Temperature
C / 37°F
Dewpoint
C / 37°F
Humidity
100%
Altimeter
29.89" Hg
Pressure
1012.22 hPa
Current Rain
0.08"